sensor_id;sensor_type;location;lat;lon;timestamp;P1;P2;P0
47081;PMS5003;33066;49.296;14.470;2024-03-07T00:00:39;44;39;
47081;PMS5003;33066;49.296;14.470;2024-03-07T00:03:05;44;38;
47081;PMS5003;33066;49.296;14.470;2024-03-07T00:05:31;42;34;
47081;PMS5003;33066;49.296;14.470;2024-03-07T00:07:56;40;36;
47081;PMS5003;33066;49.296;14.470;2024-03-07T00:10:22;43;36;
47081;PMS5003;33066;49.296;14.470;2024-03-07T00:12:47;47;38;
47081;PMS5003;33066;49.296;14.470;2024-03-07T00:15:13;44;40;
47081;PMS5003;33066;49.296;14.470;2024-03-07T00:17:38;42;34;
47081;PMS5003;33066;49.296;14.470;2024-03-07T00:20:04;51;38;
47081;PMS5003;33066;49.296;14.470;2024-03-07T00:22:29;49;43;
47081;PMS5003;33066;49.296;14.470;2024-03-07T00:24:54;49;41;
47081;PMS5003;33066;49.296;14.470;2024-03-07T00:27:20;44;36;
47081;PMS5003;33066;49.296;14.470;2024-03-07T00:29:46;39;34;
47081;PMS5003;33066;49.296;14.470;2024-03-07T00:32:11;55;43;
47081;PMS5003;33066;49.296;14.470;2024-03-07T00:34:37;55;34;
47081;PMS5003;33066;49.296;14.470;2024-03-07T00:37:01;62;41;
47081;PMS5003;33066;49.296;14.470;2024-03-07T00:39:27;43;38;
47081;PMS5003;33066;49.296;14.470;2024-03-07T00:41:53;43;34;
47081;PMS5003;33066;49.296;14.470;2024-03-07T00:44:18;48;40;
47081;PMS5003;33066;49.296;14.470;2024-03-07T00:46:44;55;43;
47081;PMS5003;33066;49.296;14.470;2024-03-07T00:49:10;56;44;
47081;PMS5003;33066;49.296;14.470;2024-03-07T00:51:36;48;36;
47081;PMS5003;33066;49.296;14.470;2024-03-07T00:54:01;48;42;
47081;PMS5003;33066;49.296;14.470;2024-03-07T00:56:26;45;39;
47081;PMS5003;33066;49.296;14.470;2024-03-07T00:58:52;51;40;
47081;PMS5003;33066;49.296;14.470;2024-03-07T01:01:17;51;40;
47081;PMS5003;33066;49.296;14.470;2024-03-07T01:03:43;46;36;
47081;PMS5003;33066;49.296;14.470;2024-03-07T01:06:08;53;42;
47081;PMS5003;33066;49.296;14.470;2024-03-07T01:08:33;44;37;
47081;PMS5003;33066;49.296;14.470;2024-03-07T01:10:59;47;36;
47081;PMS5003;33066;49.296;14.470;2024-03-07T01:13:25;55;47;
47081;PMS5003;33066;49.296;14.470;2024-03-07T01:15:50;49;41;
47081;PMS5003;33066;49.296;14.470;2024-03-07T01:18:15;53;38;
47081;PMS5003;33066;49.296;14.470;2024-03-07T01:20:41;49;40;
47081;PMS5003;33066;49.296;14.470;2024-03-07T01:23:06;43;29;
47081;PMS5003;33066;49.296;14.470;2024-03-07T01:25:31;52;42;
47081;PMS5003;33066;49.296;14.470;2024-03-07T01:27:57;57;41;
47081;PMS5003;33066;49.296;14.470;2024-03-07T01:30:22;59;48;
47081;PMS5003;33066;49.296;14.470;2024-03-07T01:32:47;51;43;
47081;PMS5003;33066;49.296;14.470;2024-03-07T01:35:13;59;46;
47081;PMS5003;33066;49.296;14.470;2024-03-07T01:37:38;48;43;
47081;PMS5003;33066;49.296;14.470;2024-03-07T01:40:03;50;42;
47081;PMS5003;33066;49.296;14.470;2024-03-07T01:42:28;57;47;
47081;PMS5003;33066;49.296;14.470;2024-03-07T01:44:54;53;43;
47081;PMS5003;33066;49.296;14.470;2024-03-07T01:47:19;51;36;
47081;PMS5003;33066;49.296;14.470;2024-03-07T01:49:45;49;38;
47081;PMS5003;33066;49.296;14.470;2024-03-07T01:52:10;44;34;
47081;PMS5003;33066;49.296;14.470;2024-03-07T01:54:36;45;33;
47081;PMS5003;33066;49.296;14.470;2024-03-07T01:57:01;48;38;
47081;PMS5003;33066;49.296;14.470;2024-03-07T01:59:26;55;42;
47081;PMS5003;33066;49.296;14.470;2024-03-07T02:01:52;48;42;
47081;PMS5003;33066;49.296;14.470;2024-03-07T02:04:17;42;37;
47081;PMS5003;33066;49.296;14.470;2024-03-07T02:06:42;52;40;
47081;PMS5003;33066;49.296;14.470;2024-03-07T02:09:08;50;44;
47081;PMS5003;33066;49.296;14.470;2024-03-07T02:11:34;50;34;
47081;PMS5003;33066;49.296;14.470;2024-03-07T02:13:59;33;30;
47081;PMS5003;33066;49.296;14.470;2024-03-07T02:16:24;59;40;
47081;PMS5003;33066;49.296;14.470;2024-03-07T02:18:50;48;35;
47081;PMS5003;33066;49.296;14.470;2024-03-07T02:21:15;43;36;
47081;PMS5003;33066;49.296;14.470;2024-03-07T02:23:40;43;36;
47081;PMS5003;33066;49.296;14.470;2024-03-07T02:26:05;40;37;
47081;PMS5003;33066;49.296;14.470;2024-03-07T02:28:31;51;37;
47081;PMS5003;33066;49.296;14.470;2024-03-07T02:30:57;52;35;
47081;PMS5003;33066;49.296;14.470;2024-03-07T02:33:22;47;34;
47081;PMS5003;33066;49.296;14.470;2024-03-07T02:35:47;49;40;
47081;PMS5003;33066;49.296;14.470;2024-03-07T02:38:13;40;33;
47081;PMS5003;33066;49.296;14.470;2024-03-07T02:40:38;42;34;
47081;PMS5003;33066;49.296;14.470;2024-03-07T02:43:04;49;37;
47081;PMS5003;33066;49.296;14.470;2024-03-07T02:45:29;40;35;
47081;PMS5003;33066;49.296;14.470;2024-03-07T02:47:54;46;32;
47081;PMS5003;33066;49.296;14.470;2024-03-07T02:50:19;39;36;
47081;PMS5003;33066;49.296;14.470;2024-03-07T02:52:45;43;37;
47081;PMS5003;33066;49.296;14.470;2024-03-07T02:55:10;48;39;
47081;PMS5003;33066;49.296;14.470;2024-03-07T02:57:35;44;39;
47081;PMS5003;33066;49.296;14.470;2024-03-07T03:00:01;49;40;
47081;PMS5003;33066;49.296;14.470;2024-03-07T03:02:26;44;39;
47081;PMS5003;33066;49.296;14.470;2024-03-07T03:04:51;54;46;
47081;PMS5003;33066;49.296;14.470;2024-03-07T03:07:17;43;41;
47081;PMS5003;33066;49.296;14.470;2024-03-07T03:09:43;57;41;
47081;PMS5003;33066;49.296;14.470;2024-03-07T03:12:08;43;34;
47081;PMS5003;33066;49.296;14.470;2024-03-07T03:14:33;41;38;
47081;PMS5003;33066;49.296;14.470;2024-03-07T03:16:59;51;41;
47081;PMS5003;33066;49.296;14.470;2024-03-07T03:19:24;50;43;
47081;PMS5003;33066;49.296;14.470;2024-03-07T03:21:49;50;41;
47081;PMS5003;33066;49.296;14.470;2024-03-07T03:24:15;57;40;
47081;PMS5003;33066;49.296;14.470;2024-03-07T03:26:40;53;41;
47081;PMS5003;33066;49.296;14.470;2024-03-07T03:29:06;53;38;
47081;PMS5003;33066;49.296;14.470;2024-03-07T03:31:31;51;38;
47081;PMS5003;33066;49.296;14.470;2024-03-07T03:33:57;46;36;
47081;PMS5003;33066;49.296;14.470;2024-03-07T03:36:22;50;41;
47081;PMS5003;33066;49.296;14.470;2024-03-07T03:38:47;51;43;
47081;PMS5003;33066;49.296;14.470;2024-03-07T03:41:14;47;39;
47081;PMS5003;33066;49.296;14.470;2024-03-07T03:43:37;51;47;
47081;PMS5003;33066;49.296;14.470;2024-03-07T03:46:03;48;37;
47081;PMS5003;33066;49.296;14.470;2024-03-07T03:48:29;57;48;
47081;PMS5003;33066;49.296;14.470;2024-03-07T03:50:54;42;37;
47081;PMS5003;33066;49.296;14.470;2024-03-07T03:53:20;57;36;
47081;PMS5003;33066;49.296;14.470;2024-03-07T03:55:45;46;40;
47081;PMS5003;33066;49.296;14.470;2024-03-07T03:58:10;62;40;
47081;PMS5003;33066;49.296;14.470;2024-03-07T04:00:36;57;46;
47081;PMS5003;33066;49.296;14.470;2024-03-07T04:03:02;45;40;
47081;PMS5003;33066;49.296;14.470;2024-03-07T04:05:27;52;41;
47081;PMS5003;33066;49.296;14.470;2024-03-07T04:07:53;47;40;
47081;PMS5003;33066;49.296;14.470;2024-03-07T04:12:59;51;46;
47081;PMS5003;33066;49.296;14.470;2024-03-07T04:15:24;53;41;
47081;PMS5003;33066;49.296;14.470;2024-03-07T04:17:50;54;42;
47081;PMS5003;33066;49.296;14.470;2024-03-07T04:20:16;44;36;
47081;PMS5003;33066;49.296;14.470;2024-03-07T04:22:41;50;42;
47081;PMS5003;33066;49.296;14.470;2024-03-07T04:25:07;58;51;
47081;PMS5003;33066;49.296;14.470;2024-03-07T04:27:32;56;42;
47081;PMS5003;33066;49.296;14.470;2024-03-07T04:29:57;53;46;
47081;PMS5003;33066;49.296;14.470;2024-03-07T04:32:22;44;36;
47081;PMS5003;33066;49.296;14.470;2024-03-07T04:34:48;56;45;
47081;PMS5003;33066;49.296;14.470;2024-03-07T04:37:13;51;40;
47081;PMS5003;33066;49.296;14.470;2024-03-07T04:39:39;54;43;
47081;PMS5003;33066;49.296;14.470;2024-03-07T04:42:05;64;50;
47081;PMS5003;33066;49.296;14.470;2024-03-07T04:44:30;47;43;
47081;PMS5003;33066;49.296;14.470;2024-03-07T04:46:55;50;38;
47081;PMS5003;33066;49.296;14.470;2024-03-07T04:49:21;51;42;
47081;PMS5003;33066;49.296;14.470;2024-03-07T04:51:46;42;35;
47081;PMS5003;33066;49.296;14.470;2024-03-07T04:54:12;53;41;
47081;PMS5003;33066;49.296;14.470;2024-03-07T04:56:37;48;44;
47081;PMS5003;33066;49.296;14.470;2024-03-07T04:59:02;52;42;
47081;PMS5003;33066;49.296;14.470;2024-03-07T05:01:28;43;34;
47081;PMS5003;33066;49.296;14.470;2024-03-07T05:03:53;45;39;
47081;PMS5003;33066;49.296;14.470;2024-03-07T05:06:19;57;43;
47081;PMS5003;33066;49.296;14.470;2024-03-07T05:08:44;50;44;
47081;PMS5003;33066;49.296;14.470;2024-03-07T05:11:09;60;44;
47081;PMS5003;33066;49.296;14.470;2024-03-07T05:13:35;46;39;
47081;PMS5003;33066;49.296;14.470;2024-03-07T05:16:00;54;46;
47081;PMS5003;33066;49.296;14.470;2024-03-07T05:18:26;53;36;
47081;PMS5003;33066;49.296;14.470;2024-03-07T05:20:52;59;45;
47081;PMS5003;33066;49.296;14.470;2024-03-07T05:23:17;47;44;
47081;PMS5003;33066;49.296;14.470;2024-03-07T05:25:43;52;41;
47081;PMS5003;33066;49.296;14.470;2024-03-07T05:28:09;62;52;
47081;PMS5003;33066;49.296;14.470;2024-03-07T05:30:34;46;36;
47081;PMS5003;33066;49.296;14.470;2024-03-07T05:32:59;47;41;
47081;PMS5003;33066;49.296;14.470;2024-03-07T05:35:25;46;39;
47081;PMS5003;33066;49.296;14.470;2024-03-07T05:37:50;58;42;
47081;PMS5003;33066;49.296;14.470;2024-03-07T05:40:15;58;50;
47081;PMS5003;33066;49.296;14.470;2024-03-07T05:42:41;48;40;
47081;PMS5003;33066;49.296;14.470;2024-03-07T05:45:06;51;40;
47081;PMS5003;33066;49.296;14.470;2024-03-07T05:47:31;52;44;
47081;PMS5003;33066;49.296;14.470;2024-03-07T05:49:56;49;43;
47081;PMS5003;33066;49.296;14.470;2024-03-07T05:52:22;67;44;
47081;PMS5003;33066;49.296;14.470;2024-03-07T05:54:47;62;47;
47081;PMS5003;33066;49.296;14.470;2024-03-07T05:57:13;56;45;
47081;PMS5003;33066;49.296;14.470;2024-03-07T05:59:38;61;44;
47081;PMS5003;33066;49.296;14.470;2024-03-07T06:02:04;52;42;
47081;PMS5003;33066;49.296;14.470;2024-03-07T06:04:29;60;46;
47081;PMS5003;33066;49.296;14.470;2024-03-07T06:06:54;47;43;
47081;PMS5003;33066;49.296;14.470;2024-03-07T06:09:20;48;43;
47081;PMS5003;33066;49.296;14.470;2024-03-07T06:11:45;43;35;
47081;PMS5003;33066;49.296;14.470;2024-03-07T06:14:10;59;41;
47081;PMS5003;33066;49.296;14.470;2024-03-07T06:16:37;53;36;
47081;PMS5003;33066;49.296;14.470;2024-03-07T06:19:02;42;35;
47081;PMS5003;33066;49.296;14.470;2024-03-07T06:21:27;47;36;
47081;PMS5003;33066;49.296;14.470;2024-03-07T06:23:52;46;38;
47081;PMS5003;33066;49.296;14.470;2024-03-07T06:26:18;42;35;
47081;PMS5003;33066;49.296;14.470;2024-03-07T06:28:44;54;43;
47081;PMS5003;33066;49.296;14.470;2024-03-07T06:31:09;42;34;
47081;PMS5003;33066;49.296;14.470;2024-03-07T06:33:34;38;34;
47081;PMS5003;33066;49.296;14.470;2024-03-07T06:35:59;45;39;
47081;PMS5003;33066;49.296;14.470;2024-03-07T06:38:24;35;29;
47081;PMS5003;33066;49.296;14.470;2024-03-07T06:40:49;50;41;
47081;PMS5003;33066;49.296;14.470;2024-03-07T06:43:15;30;28;
47081;PMS5003;33066;49.296;14.470;2024-03-07T06:45:40;49;40;
47081;PMS5003;33066;49.296;14.470;2024-03-07T06:48:06;64;46;
47081;PMS5003;33066;49.296;14.470;2024-03-07T06:50:31;47;41;
47081;PMS5003;33066;49.296;14.470;2024-03-07T06:52:56;41;36;
47081;PMS5003;33066;49.296;14.470;2024-03-07T06:55:22;37;33;
47081;PMS5003;33066;49.296;14.470;2024-03-07T06:57:48;44;34;
47081;PMS5003;33066;49.296;14.470;2024-03-07T07:00:13;38;32;
47081;PMS5003;33066;49.296;14.470;2024-03-07T07:02:38;52;37;
47081;PMS5003;33066;49.296;14.470;2024-03-07T07:05:04;33;30;
47081;PMS5003;33066;49.296;14.470;2024-03-07T07:07:29;41;36;
47081;PMS5003;33066;49.296;14.470;2024-03-07T07:09:54;32;28;
47081;PMS5003;33066;49.296;14.470;2024-03-07T07:12:20;45;37;
47081;PMS5003;33066;49.296;14.470;2024-03-07T07:14:45;46;33;
47081;PMS5003;33066;49.296;14.470;2024-03-07T07:17:10;51;32;
47081;PMS5003;33066;49.296;14.470;2024-03-07T07:19:36;41;29;
47081;PMS5003;33066;49.296;14.470;2024-03-07T07:22:02;44;36;
47081;PMS5003;33066;49.296;14.470;2024-03-07T07:24:27;46;39;
47081;PMS5003;33066;49.296;14.470;2024-03-07T07:26:52;40;34;
47081;PMS5003;33066;49.296;14.470;2024-03-07T07:29:18;42;36;
47081;PMS5003;33066;49.296;14.470;2024-03-07T07:31:43;48;36;
47081;PMS5003;33066;49.296;14.470;2024-03-07T07:34:08;48;38;
47081;PMS5003;33066;49.296;14.470;2024-03-07T07:36:34;51;38;
47081;PMS5003;33066;49.296;14.470;2024-03-07T07:39:00;37;29;
47081;PMS5003;33066;49.296;14.470;2024-03-07T07:41:25;31;28;
47081;PMS5003;33066;49.296;14.470;2024-03-07T07:43:51;27;27;
47081;PMS5003;33066;49.296;14.470;2024-03-07T07:46:16;43;30;
47081;PMS5003;33066;49.296;14.470;2024-03-07T07:48:41;33;27;
47081;PMS5003;33066;49.296;14.470;2024-03-07T07:51:07;49;35;
47081;PMS5003;33066;49.296;14.470;2024-03-07T07:53:32;37;34;
47081;PMS5003;33066;49.296;14.470;2024-03-07T07:55:58;38;34;
47081;PMS5003;33066;49.296;14.470;2024-03-07T07:58:23;47;37;
47081;PMS5003;33066;49.296;14.470;2024-03-07T08:00:48;56;42;
47081;PMS5003;33066;49.296;14.470;2024-03-07T08:03:14;53;45;
47081;PMS5003;33066;49.296;14.470;2024-03-07T08:05:39;70;54;
47081;PMS5003;33066;49.296;14.470;2024-03-07T08:08:05;62;45;
47081;PMS5003;33066;49.296;14.470;2024-03-07T08:10:30;66;47;
47081;PMS5003;33066;49.296;14.470;2024-03-07T08:12:56;52;37;
47081;PMS5003;33066;49.296;14.470;2024-03-07T08:15:22;48;34;
47081;PMS5003;33066;49.296;14.470;2024-03-07T08:17:47;40;28;
47081;PMS5003;33066;49.296;14.470;2024-03-07T08:20:12;53;39;
47081;PMS5003;33066;49.296;14.470;2024-03-07T08:22:37;33;30;
47081;PMS5003;33066;49.296;14.470;2024-03-07T08:25:02;39;32;
47081;PMS5003;33066;49.296;14.470;2024-03-07T08:27:27;30;25;
47081;PMS5003;33066;49.296;14.470;2024-03-07T08:29:53;47;41;
47081;PMS5003;33066;49.296;14.470;2024-03-07T08:32:19;40;31;
47081;PMS5003;33066;49.296;14.470;2024-03-07T08:34:44;39;32;
47081;PMS5003;33066;49.296;14.470;2024-03-07T08:37:10;42;37;
47081;PMS5003;33066;49.296;14.470;2024-03-07T08:39:35;35;32;
47081;PMS5003;33066;49.296;14.470;2024-03-07T08:42:00;39;31;
47081;PMS5003;33066;49.296;14.470;2024-03-07T08:44:27;38;31;
47081;PMS5003;33066;49.296;14.470;2024-03-07T08:46:51;42;32;
47081;PMS5003;33066;49.296;14.470;2024-03-07T08:49:17;38;29;
47081;PMS5003;33066;49.296;14.470;2024-03-07T08:51:42;34;31;
47081;PMS5003;33066;49.296;14.470;2024-03-07T08:54:08;44;32;
47081;PMS5003;33066;49.296;14.470;2024-03-07T08:56:33;35;31;
47081;PMS5003;33066;49.296;14.470;2024-03-07T08:58:59;44;35;
47081;PMS5003;33066;49.296;14.470;2024-03-07T09:01:23;40;31;
47081;PMS5003;33066;49.296;14.470;2024-03-07T09:03:49;53;42;
47081;PMS5003;33066;49.296;14.470;2024-03-07T09:06:15;37;32;
47081;PMS5003;33066;49.296;14.470;2024-03-07T09:08:40;39;25;
47081;PMS5003;33066;49.296;14.470;2024-03-07T09:11:06;43;29;
47081;PMS5003;33066;49.296;14.470;2024-03-07T09:13:31;30;26;
47081;PMS5003;33066;49.296;14.470;2024-03-07T09:15:58;31;26;
47081;PMS5003;33066;49.296;14.470;2024-03-07T09:18:22;36;27;
47081;PMS5003;33066;49.296;14.470;2024-03-07T09:20:48;30;27;
47081;PMS5003;33066;49.296;14.470;2024-03-07T09:23:12;32;27;
47081;PMS5003;33066;49.296;14.470;2024-03-07T09:25:37;43;36;
47081;PMS5003;33066;49.296;14.470;2024-03-07T09:28:04;34;30;
47081;PMS5003;33066;49.296;14.470;2024-03-07T09:30:30;36;28;
47081;PMS5003;33066;49.296;14.470;2024-03-07T09:32:54;47;41;
47081;PMS5003;33066;49.296;14.470;2024-03-07T09:35:19;34;28;
47081;PMS5003;33066;49.296;14.470;2024-03-07T09:37:44;36;31;
47081;PMS5003;33066;49.296;14.470;2024-03-07T09:40:10;34;30;
47081;PMS5003;33066;49.296;14.470;2024-03-07T09:42:35;34;28;
47081;PMS5003;33066;49.296;14.470;2024-03-07T09:45:00;29;25;
47081;PMS5003;33066;49.296;14.470;2024-03-07T09:47:26;40;33;
47081;PMS5003;33066;49.296;14.470;2024-03-07T09:49:51;30;22;
47081;PMS5003;33066;49.296;14.470;2024-03-07T09:52:19;26;19;
47081;PMS5003;33066;49.296;14.470;2024-03-07T09:54:43;28;25;
47081;PMS5003;33066;49.296;14.470;2024-03-07T09:57:08;21;17;
47081;PMS5003;33066;49.296;14.470;2024-03-07T09:59:35;34;26;
47081;PMS5003;33066;49.296;14.470;2024-03-07T10:01:59;21;20;
47081;PMS5003;33066;49.296;14.470;2024-03-07T10:04:27;34;29;
47081;PMS5003;33066;49.296;14.470;2024-03-07T10:06:50;35;28;
47081;PMS5003;33066;49.296;14.470;2024-03-07T10:09:16;35;29;
47081;PMS5003;33066;49.296;14.470;2024-03-07T10:11:42;29;18;
47081;PMS5003;33066;49.296;14.470;2024-03-07T10:14:07;31;24;
47081;PMS5003;33066;49.296;14.470;2024-03-07T10:16:32;25;19;
47081;PMS5003;33066;49.296;14.470;2024-03-07T10:18:57;21;18;
47081;PMS5003;33066;49.296;14.470;2024-03-07T10:21:23;41;28;
47081;PMS5003;33066;49.296;14.470;2024-03-07T10:23:50;29;23;
47081;PMS5003;33066;49.296;14.470;2024-03-07T10:26:15;34;25;
47081;PMS5003;33066;49.296;14.470;2024-03-07T10:28:39;36;30;
47081;PMS5003;33066;49.296;14.470;2024-03-07T10:31:04;31;30;
47081;PMS5003;33066;49.296;14.470;2024-03-07T10:33:29;25;24;
47081;PMS5003;33066;49.296;14.470;2024-03-07T10:35:56;24;18;
47081;PMS5003;33066;49.296;14.470;2024-03-07T10:38:21;28;23;
47081;PMS5003;33066;49.296;14.470;2024-03-07T10:40:47;33;29;
47081;PMS5003;33066;49.296;14.470;2024-03-07T10:43:12;31;25;
47081;PMS5003;33066;49.296;14.470;2024-03-07T10:45:40;30;25;
47081;PMS5003;33066;49.296;14.470;2024-03-07T10:48:05;26;23;
47081;PMS5003;33066;49.296;14.470;2024-03-07T10:50:33;20;20;
47081;PMS5003;33066;49.296;14.470;2024-03-07T10:52:54;35;25;
47081;PMS5003;33066;49.296;14.470;2024-03-07T10:55:22;22;17;
47081;PMS5003;33066;49.296;14.470;2024-03-07T10:57:48;18;17;
47081;PMS5003;33066;49.296;14.470;2024-03-07T11:00:10;21;18;
47081;PMS5003;33066;49.296;14.470;2024-03-07T11:02:37;19;17;
47081;PMS5003;33066;49.296;14.470;2024-03-07T11:05:01;22;19;
47081;PMS5003;33066;49.296;14.470;2024-03-07T11:07:26;19;11;
47081;PMS5003;33066;49.296;14.470;2024-03-07T11:09:52;20;13;
47081;PMS5003;33066;49.296;14.470;2024-03-07T11:12:18;17;15;
47081;PMS5003;33066;49.296;14.470;2024-03-07T11:14:45;13;12;
47081;PMS5003;33066;49.296;14.470;2024-03-07T11:17:08;12;11;
47081;PMS5003;33066;49.296;14.470;2024-03-07T11:19:34;17;14;
47081;PMS5003;33066;49.296;14.470;2024-03-07T11:21:59;23;21;
47081;PMS5003;33066;49.296;14.470;2024-03-07T11:24:25;17;17;
47081;PMS5003;33066;49.296;14.470;2024-03-07T11:26:50;15;13;
47081;PMS5003;33066;49.296;14.470;2024-03-07T11:31:41;15;13;
47081;PMS5003;33066;49.296;14.470;2024-03-07T11:34:11;20;18;
47081;PMS5003;33066;49.296;14.470;2024-03-07T11:38:57;15;14;
47081;PMS5003;33066;49.296;14.470;2024-03-07T11:41:23;20;17;
47081;PMS5003;33066;49.296;14.470;2024-03-07T11:43:48;20;17;
47081;PMS5003;33066;49.296;14.470;2024-03-07T11:46:15;22;22;
47081;PMS5003;33066;49.296;14.470;2024-03-07T11:48:40;13;11;
47081;PMS5003;33066;49.296;14.470;2024-03-07T11:51:05;18;16;
47081;PMS5003;33066;49.296;14.470;2024-03-07T11:53:30;19;15;
47081;PMS5003;33066;49.296;14.470;2024-03-07T11:55:55;25;23;
47081;PMS5003;33066;49.296;14.470;2024-03-07T11:58:22;24;18;
47081;PMS5003;33066;49.296;14.470;2024-03-07T12:00:46;16;13;
47081;PMS5003;33066;49.296;14.470;2024-03-07T12:03:11;16;13;
47081;PMS5003;33066;49.296;14.470;2024-03-07T12:05:36;21;18;
47081;PMS5003;33066;49.296;14.470;2024-03-07T12:08:04;14;14;
47081;PMS5003;33066;49.296;14.470;2024-03-07T12:10:27;19;18;
47081;PMS5003;33066;49.296;14.470;2024-03-07T12:12:53;13;11;
47081;PMS5003;33066;49.296;14.470;2024-03-07T12:15:20;16;14;
47081;PMS5003;33066;49.296;14.470;2024-03-07T12:17:44;16;15;
47081;PMS5003;33066;49.296;14.470;2024-03-07T12:20:10;21;19;
47081;PMS5003;33066;49.296;14.470;2024-03-07T12:22:36;16;12;
47081;PMS5003;33066;49.296;14.470;2024-03-07T12:25:01;17;14;
47081;PMS5003;33066;49.296;14.470;2024-03-07T12:27:26;13;9;
47081;PMS5003;33066;49.296;14.470;2024-03-07T12:29:51;16;15;
47081;PMS5003;33066;49.296;14.470;2024-03-07T12:32:16;18;15;
47081;PMS5003;33066;49.296;14.470;2024-03-07T12:34:42;15;13;
47081;PMS5003;33066;49.296;14.470;2024-03-07T12:37:08;16;14;
47081;PMS5003;33066;49.296;14.470;2024-03-07T12:39:34;14;14;
47081;PMS5003;33066;49.296;14.470;2024-03-07T12:41:59;17;14;
47081;PMS5003;33066;49.296;14.470;2024-03-07T12:44:25;21;18;
47081;PMS5003;33066;49.296;14.470;2024-03-07T12:46:51;24;19;
47081;PMS5003;33066;49.296;14.470;2024-03-07T12:49:16;16;11;
47081;PMS5003;33066;49.296;14.470;2024-03-07T12:51:41;13;13;
47081;PMS5003;33066;49.296;14.470;2024-03-07T12:54:09;17;12;
47081;PMS5003;33066;49.296;14.470;2024-03-07T12:56:34;15;15;
47081;PMS5003;33066;49.296;14.470;2024-03-07T12:58:59;16;16;
47081;PMS5003;33066;49.296;14.470;2024-03-07T13:01:23;24;18;
47081;PMS5003;33066;49.296;14.470;2024-03-07T13:03:48;30;24;
47081;PMS5003;33066;49.296;14.470;2024-03-07T13:06:14;22;17;
47081;PMS5003;33066;49.296;14.470;2024-03-07T13:08:39;19;13;
47081;PMS5003;33066;49.296;14.470;2024-03-07T13:11:04;26;24;
47081;PMS5003;33066;49.296;14.470;2024-03-07T13:13:30;26;22;
47081;PMS5003;33066;49.296;14.470;2024-03-07T13:15:55;13;13;
47081;PMS5003;33066;49.296;14.470;2024-03-07T13:18:20;24;18;
47081;PMS5003;33066;49.296;14.470;2024-03-07T13:20:46;16;15;
47081;PMS5003;33066;49.296;14.470;2024-03-07T13:23:12;14;14;
47081;PMS5003;33066;49.296;14.470;2024-03-07T13:25:36;24;17;
47081;PMS5003;33066;49.296;14.470;2024-03-07T13:28:03;22;19;
47081;PMS5003;33066;49.296;14.470;2024-03-07T13:30:27;20;14;
47081;PMS5003;33066;49.296;14.470;2024-03-07T13:32:53;28;25;
47081;PMS5003;33066;49.296;14.470;2024-03-07T13:35:18;15;15;
47081;PMS5003;33066;49.296;14.470;2024-03-07T13:37:43;26;22;
47081;PMS5003;33066;49.296;14.470;2024-03-07T13:40:09;21;17;
47081;PMS5003;33066;49.296;14.470;2024-03-07T13:42:36;27;22;
47081;PMS5003;33066;49.296;14.470;2024-03-07T13:45:00;20;19;
47081;PMS5003;33066;49.296;14.470;2024-03-07T13:47:26;17;14;
47081;PMS5003;33066;49.296;14.470;2024-03-07T13:49:51;18;15;
47081;PMS5003;33066;49.296;14.470;2024-03-07T13:52:17;23;22;
47081;PMS5003;33066;49.296;14.470;2024-03-07T13:54:42;16;12;
47081;PMS5003;33066;49.296;14.470;2024-03-07T13:57:11;19;15;
47081;PMS5003;33066;49.296;14.470;2024-03-07T14:02:04;25;20;
47081;PMS5003;33066;49.296;14.470;2024-03-07T14:06:53;27;17;
47081;PMS5003;33066;49.296;14.470;2024-03-07T14:14:12;59;44;
47081;PMS5003;33066;49.296;14.470;2024-03-07T14:16:40;42;28;
47081;PMS5003;33066;49.296;14.470;2024-03-07T14:31:05;37;34;
47081;PMS5003;33066;49.296;14.470;2024-03-07T14:33:31;41;38;
47081;PMS5003;33066;49.296;14.470;2024-03-07T14:35:58;19;19;
47081;PMS5003;33066;49.296;14.470;2024-03-07T14:38:23;33;26;
47081;PMS5003;33066;49.296;14.470;2024-03-07T14:40:48;30;25;
47081;PMS5003;33066;49.296;14.470;2024-03-07T14:43:13;33;31;
47081;PMS5003;33066;49.296;14.470;2024-03-07T14:45:39;43;37;
47081;PMS5003;33066;49.296;14.470;2024-03-07T14:48:04;32;30;
47081;PMS5003;33066;49.296;14.470;2024-03-07T14:50:31;31;30;
47081;PMS5003;33066;49.296;14.470;2024-03-07T14:52:55;36;32;
47081;PMS5003;33066;49.296;14.470;2024-03-07T14:55:20;32;29;
47081;PMS5003;33066;49.296;14.470;2024-03-07T14:57:46;35;32;
47081;PMS5003;33066;49.296;14.470;2024-03-07T15:00:12;35;29;
47081;PMS5003;33066;49.296;14.470;2024-03-07T15:02:37;28;24;
47081;PMS5003;33066;49.296;14.470;2024-03-07T15:05:03;33;28;
47081;PMS5003;33066;49.296;14.470;2024-03-07T15:07:30;29;26;
47081;PMS5003;33066;49.296;14.470;2024-03-07T15:09:53;30;21;
47081;PMS5003;33066;49.296;14.470;2024-03-07T15:12:19;38;24;
47081;PMS5003;33066;49.296;14.470;2024-03-07T15:14:44;34;23;
47081;PMS5003;33066;49.296;14.470;2024-03-07T15:17:10;20;18;
47081;PMS5003;33066;49.296;14.470;2024-03-07T15:19:35;37;31;
47081;PMS5003;33066;49.296;14.470;2024-03-07T15:22:01;28;23;
47081;PMS5003;33066;49.296;14.470;2024-03-07T15:24:28;23;18;
47081;PMS5003;33066;49.296;14.470;2024-03-07T15:26:53;25;25;
47081;PMS5003;33066;49.296;14.470;2024-03-07T15:29:18;17;17;
47081;PMS5003;33066;49.296;14.470;2024-03-07T15:31:42;22;17;
47081;PMS5003;33066;49.296;14.470;2024-03-07T15:34:08;21;17;
47081;PMS5003;33066;49.296;14.470;2024-03-07T15:36:33;31;27;
47081;PMS5003;33066;49.296;14.470;2024-03-07T15:38:59;31;27;
47081;PMS5003;33066;49.296;14.470;2024-03-07T15:41:24;26;23;
47081;PMS5003;33066;49.296;14.470;2024-03-07T15:43:50;26;23;
47081;PMS5003;33066;49.296;14.470;2024-03-07T15:46:15;36;28;
47081;PMS5003;33066;49.296;14.470;2024-03-07T15:48:41;25;19;
47081;PMS5003;33066;49.296;14.470;2024-03-07T15:51:07;25;23;
47081;PMS5003;33066;49.296;14.470;2024-03-07T15:53:32;37;30;
47081;PMS5003;33066;49.296;14.470;2024-03-07T15:55:58;43;40;
47081;PMS5003;33066;49.296;14.470;2024-03-07T15:58:23;38;31;
47081;PMS5003;33066;49.296;14.470;2024-03-07T16:00:48;29;23;
47081;PMS5003;33066;49.296;14.470;2024-03-07T16:03:14;55;38;
47081;PMS5003;33066;49.296;14.470;2024-03-07T16:05:40;35;28;
47081;PMS5003;33066;49.296;14.470;2024-03-07T16:08:11;31;24;
47081;PMS5003;33066;49.296;14.470;2024-03-07T16:10:30;35;27;
47081;PMS5003;33066;49.296;14.470;2024-03-07T16:12:56;38;30;
47081;PMS5003;33066;49.296;14.470;2024-03-07T16:15:20;40;33;
47081;PMS5003;33066;49.296;14.470;2024-03-07T16:17:47;34;27;